Terminal Aerodrome Forecast
Issued by NWS Bismarck, ND

Home | Current Version | Previous Version | Graphics & Text | Print | Product List | Glossary On
Versions: 1 2 3 4 5 6 7 8 9 10 11 12 13 14 15 16 17 18
707
FTUS43 KBIS 271126
TAFBIS
TAF
KBIS 271126Z 2712/2812 26008KT P6SM FEW080 SCT200
     FM271900 28016G24KT P6SM SCT080 BKN100
     FM280000 31016G24KT P6SM VCSH SCT070 BKN100
     FM280200 31009KT P6SM VCSH SCT060 BKN150
     FM280300 30006KT P6SM FEW050 SCT140=

USA.gov is the U.S. government's official web portal to all federal, state and local government web resources and services.